createdAt,value
2019-03-22T00:01:28.344Z,7.39
2019-03-22T00:03:59.682Z,7.33
2019-03-22T00:06:30.912Z,7.30
2019-03-22T00:09:02.397Z,7.22
2019-03-22T00:11:34.005Z,7.12
2019-03-22T00:14:05.532Z,7.06
2019-03-22T00:16:36.751Z,7.02
2019-03-22T00:19:08.090Z,6.94
2019-03-22T00:21:39.401Z,6.88
2019-03-22T00:24:10.756Z,6.89
2019-03-22T00:26:41.996Z,6.86
2019-03-22T00:29:13.409Z,6.86
2019-03-22T00:31:44.702Z,6.82
2019-03-22T00:34:15.993Z,6.77
2019-03-22T00:36:47.355Z,6.76
2019-03-22T00:39:18.618Z,6.67
2019-03-22T00:41:49.927Z,6.60
2019-03-22T00:44:21.169Z,6.54
2019-03-22T00:46:52.435Z,6.48
2019-03-22T00:49:23.706Z,6.42
2019-03-22T00:51:54.998Z,6.37
2019-03-22T00:54:26.277Z,6.36
2019-03-22T00:56:57.506Z,6.32
2019-03-22T00:59:29.681Z,6.35
2019-03-22T01:02:00.890Z,6.32
2019-03-22T01:04:32.341Z,6.27
2019-03-22T01:07:03.562Z,6.10
2019-03-22T01:09:34.825Z,5.99
2019-03-22T01:12:06.228Z,5.90
2019-03-22T01:14:37.546Z,5.86
2019-03-22T01:17:08.961Z,5.84
2019-03-22T01:19:40.183Z,5.79
2019-03-22T01:22:11.597Z,5.76
2019-03-22T01:24:42.905Z,5.73
2019-03-22T01:27:14.202Z,5.75
2019-03-22T01:29:45.602Z,5.71
2019-03-22T01:32:16.980Z,5.67
2019-03-22T01:34:48.278Z,5.65
2019-03-22T01:37:19.745Z,5.65
2019-03-22T01:39:50.962Z,5.65
2019-03-22T01:42:22.200Z,5.68
2019-03-22T01:44:53.547Z,5.74
2019-03-22T01:47:24.851Z,5.79
2019-03-22T01:49:56.221Z,5.83
2019-03-22T01:52:27.572Z,5.87
2019-03-22T01:54:58.851Z,5.93
2019-03-22T01:57:30.227Z,5.96
2019-03-22T02:00:01.616Z,5.93
2019-03-22T02:02:33.081Z,5.87
2019-03-22T02:05:06.714Z,5.85
2019-03-22T02:07:37.946Z,5.86
2019-03-22T02:10:12.391Z,5.96
2019-03-22T02:12:43.779Z,5.91
2019-03-22T02:15:17.986Z,5.89
2019-03-22T02:17:49.283Z,5.88
2019-03-22T02:20:20.717Z,5.79
2019-03-22T02:22:51.954Z,5.75
2019-03-22T02:25:23.342Z,5.70
2019-03-22T02:28:03.749Z,5.62
2019-03-22T02:30:27.719Z,5.57
2019-03-22T02:32:59.036Z,5.47
2019-03-22T02:35:30.539Z,5.34
2019-03-22T02:38:01.779Z,5.34
2019-03-22T02:40:33.008Z,5.28
2019-03-22T02:43:04.369Z,5.22
2019-03-22T02:45:36.562Z,5.19
2019-03-22T02:48:07.850Z,5.06
2019-03-22T02:50:39.191Z,4.92
2019-03-22T02:53:10.494Z,4.80
2019-03-22T02:55:41.851Z,4.74
2019-03-22T02:58:20.537Z,4.72
2019-03-22T03:00:46.198Z,4.71
2019-03-22T03:03:17.567Z,4.66
2019-03-22T03:05:48.895Z,4.69
2019-03-22T03:08:20.237Z,4.65
2019-03-22T03:10:51.456Z,4.61
2019-03-22T03:13:22.667Z,4.62
2019-03-22T03:15:53.993Z,4.63
2019-03-22T03:18:25.216Z,4.72
2019-03-22T03:20:56.566Z,4.73
2019-03-22T03:23:27.783Z,4.56
2019-03-22T03:25:59.173Z,4.38
2019-03-22T03:28:36.523Z,4.26
2019-03-22T03:31:03.498Z,4.14
2019-03-22T03:33:34.805Z,4.03
2019-03-22T03:36:06.472Z,3.98
2019-03-22T03:38:37.838Z,3.98
2019-03-22T03:41:09.305Z,3.92
2019-03-22T03:43:40.660Z,3.81
2019-03-22T03:46:12.026Z,3.78
2019-03-22T03:48:43.248Z,3.80
2019-03-22T03:51:14.512Z,3.80
2019-03-22T03:53:45.806Z,3.81
2019-03-22T03:56:18.090Z,3.72
2019-03-22T03:58:52.716Z,3.65
2019-03-22T04:01:23.099Z,3.61
2019-03-22T04:03:54.505Z,3.54
2019-03-22T04:06:25.753Z,3.49
2019-03-22T04:08:57.095Z,3.50
2019-03-22T04:11:28.374Z,3.47
2019-03-22T04:13:59.592Z,3.47
2019-03-22T04:16:30.917Z,3.56
2019-03-22T04:19:03.213Z,3.52
2019-03-22T04:21:34.467Z,3.41
2019-03-22T04:24:05.752Z,3.33
2019-03-22T04:26:37.166Z,3.28
2019-03-22T04:29:08.682Z,3.30
2019-03-22T04:31:40.148Z,3.34
2019-03-22T04:34:12.218Z,3.27
2019-03-22T04:36:43.492Z,3.20
2019-03-22T04:39:14.704Z,3.19
2019-03-22T04:41:46.107Z,3.18
2019-03-22T04:44:19.459Z,3.21
2019-03-22T04:46:51.251Z,3.16
2019-03-22T04:49:24.314Z,3.20
2019-03-22T04:51:56.681Z,3.18
2019-03-22T04:54:29.546Z,3.09
2019-03-22T04:57:01.967Z,3.02
2019-03-22T04:59:34.739Z,2.92
2019-03-22T05:02:07.938Z,2.85
2019-03-22T05:04:40.595Z,2.80
2019-03-22T05:07:12.508Z,2.76
2019-03-22T05:09:46.409Z,2.72
2019-03-22T05:12:19.962Z,2.69
2019-03-22T05:14:51.654Z,2.70
2019-03-22T05:17:23.879Z,2.69
2019-03-22T05:19:58.227Z,2.66
2019-03-22T05:22:42.212Z,2.59
2019-03-22T05:25:13.744Z,2.54
2019-03-22T05:27:46.162Z,2.48
2019-03-22T05:30:51.001Z,2.47
2019-03-22T05:33:22.292Z,2.51
2019-03-22T05:35:53.689Z,2.52
2019-03-22T05:38:25.041Z,2.50
2019-03-22T05:40:56.417Z,2.48
2019-03-22T05:43:27.773Z,2.49
2019-03-22T05:45:59.003Z,2.53
2019-03-22T05:48:30.354Z,2.56
2019-03-22T05:51:01.672Z,2.56
2019-03-22T05:53:33.028Z,2.51
2019-03-22T05:56:04.423Z,2.49
2019-03-22T05:58:35.671Z,2.52
2019-03-22T06:01:07.074Z,2.53
2019-03-22T06:03:40.010Z,2.50
2019-03-22T06:06:11.263Z,2.51
2019-03-22T06:08:42.528Z,2.54
2019-03-22T06:11:13.756Z,2.60
2019-03-22T06:13:45.023Z,2.64
2019-03-22T06:16:16.245Z,2.65
2019-03-22T06:18:50.367Z,2.68
2019-03-22T06:21:21.322Z,2.72
2019-03-22T06:23:52.763Z,2.75
2019-03-22T06:26:23.986Z,2.82
2019-03-22T06:28:55.258Z,2.86
2019-03-22T06:31:26.484Z,2.91
2019-03-22T06:33:57.856Z,2.99
2019-03-22T06:36:29.086Z,3.11
2019-03-22T06:39:00.475Z,3.21
2019-03-22T06:41:31.773Z,3.28
2019-03-22T06:44:03.175Z,3.36
2019-03-22T06:46:34.394Z,3.38
2019-03-22T06:49:06.721Z,3.42
2019-03-22T06:51:37.940Z,3.46
2019-03-22T06:54:09.288Z,3.50
2019-03-22T06:56:40.523Z,3.55
2019-03-22T06:59:11.944Z,3.62
2019-03-22T07:01:43.176Z,3.64
2019-03-22T07:04:16.212Z,3.71
2019-03-22T07:06:47.547Z,3.82
2019-03-22T07:09:18.885Z,3.97
2019-03-22T07:11:50.197Z,4.04
2019-03-22T07:14:21.419Z,4.14
2019-03-22T07:16:52.645Z,4.27
2019-03-22T07:19:24.927Z,4.37
2019-03-22T07:21:56.159Z,4.43
2019-03-22T07:24:27.388Z,4.60
2019-03-22T07:26:58.736Z,4.71
2019-03-22T07:29:30.145Z,4.85
2019-03-22T07:32:01.381Z,4.99
2019-03-22T07:34:32.711Z,5.17
2019-03-22T07:37:04.084Z,5.28
2019-03-22T07:39:35.449Z,5.40
2019-03-22T07:42:06.746Z,5.54
2019-03-22T07:44:38.091Z,5.62
2019-03-22T07:47:09.392Z,5.73
2019-03-22T07:49:40.620Z,5.85
2019-03-22T07:52:11.922Z,5.93
2019-03-22T07:54:43.178Z,6.01
2019-03-22T07:57:14.435Z,6.07
2019-03-22T07:59:45.742Z,6.20
2019-03-22T08:02:17.045Z,6.36
2019-03-22T08:04:48.435Z,6.53
2019-03-22T08:07:19.659Z,6.66
2019-03-22T08:09:51.463Z,6.73
2019-03-22T08:12:23.315Z,6.82
2019-03-22T08:14:56.770Z,6.94
2019-03-22T08:17:28.232Z,7.04
2019-03-22T08:19:59.566Z,7.15
2019-03-22T08:22:30.864Z,7.28
2019-03-22T08:25:02.188Z,7.41
2019-03-22T08:27:33.408Z,7.56
2019-03-22T08:30:06.617Z,7.69
2019-03-22T08:32:37.844Z,7.82
2019-03-22T08:35:09.159Z,8.00
2019-03-22T08:37:52.083Z,8.18
2019-03-22T08:40:13.660Z,8.32
2019-03-22T08:42:44.983Z,8.48
2019-03-22T08:45:17.186Z,8.67
2019-03-22T08:47:48.553Z,8.75
2019-03-22T08:50:19.888Z,8.84
2019-03-22T08:52:51.193Z,8.91
2019-03-22T08:55:22.468Z,8.98
2019-03-22T08:57:53.740Z,9.09
2019-03-22T09:00:38.265Z,9.18
2019-03-22T09:02:58.195Z,9.36
2019-03-22T09:05:30.289Z,9.63
2019-03-22T09:08:01.592Z,9.81
2019-03-22T09:10:33.095Z,10.05
2019-03-22T09:13:04.728Z,10.19
2019-03-22T09:15:41.031Z,10.31
2019-03-22T09:18:10.783Z,10.42
2019-03-22T09:20:42.642Z,10.55
2019-03-22T09:23:13.867Z,10.67
2019-03-22T09:25:46.890Z,10.79
2019-03-22T09:28:18.259Z,10.97
2019-03-22T09:30:49.739Z,11.07
2019-03-22T09:33:21.018Z,11.20
2019-03-22T09:35:52.353Z,11.31
2019-03-22T09:38:23.686Z,11.35
2019-03-22T09:40:55.037Z,11.39
2019-03-22T09:43:26.304Z,11.51
2019-03-22T09:45:57.783Z,11.67
2019-03-22T09:48:29.031Z,11.84
2019-03-22T09:51:06.131Z,12.03
2019-03-22T09:53:37.450Z,12.22
2019-03-22T09:56:09.243Z,12.37
2019-03-22T09:58:40.575Z,12.53
2019-03-22T10:01:23.149Z,12.70
2019-03-22T10:03:48.038Z,12.84
2019-03-22T10:06:19.398Z,13.03
2019-03-22T10:08:51.871Z,13.19
2019-03-22T10:11:23.269Z,13.31
2019-03-22T10:13:54.559Z,13.45
2019-03-22T10:16:25.881Z,13.54
2019-03-22T10:18:57.254Z,13.56
2019-03-22T10:21:28.666Z,13.73
2019-03-22T10:23:59.952Z,13.95
2019-03-22T10:26:31.193Z,14.19
2019-03-22T10:29:03.288Z,14.38
2019-03-22T10:31:37.440Z,14.50
2019-03-22T10:34:20.070Z,14.59
2019-03-22T10:36:51.359Z,14.70
2019-03-22T10:39:22.735Z,14.89
2019-03-22T10:41:53.967Z,15.02
2019-03-22T10:44:25.261Z,15.17
2019-03-22T10:46:56.755Z,15.14
2019-03-22T10:49:27.967Z,15.11
2019-03-22T10:51:58.628Z,15.29
2019-03-22T10:54:30.111Z,15.51
2019-03-22T10:57:02.246Z,15.76
2019-03-22T10:59:33.484Z,15.92
2019-03-22T11:02:07.656Z,16.04
2019-03-22T11:04:37.955Z,16.10
2019-03-22T11:07:09.351Z,16.35
2019-03-22T11:09:40.599Z,16.43
2019-03-22T11:12:12.678Z,16.67
2019-03-22T11:14:45.678Z,16.89
2019-03-22T11:17:17.347Z,17.10
2019-03-22T11:19:48.661Z,17.16
2019-03-22T11:22:21.429Z,17.31
2019-03-22T11:24:54.554Z,17.19
2019-03-22T11:27:25.802Z,17.28
2019-03-22T11:29:57.163Z,17.55
2019-03-22T11:32:28.618Z,17.44
2019-03-22T11:34:59.911Z,17.56
2019-03-22T11:37:31.209Z,17.69
2019-03-22T11:40:02.448Z,17.80
2019-03-22T11:42:33.969Z,17.92
2019-03-22T11:45:12.556Z,18.14
2019-03-22T11:47:43.917Z,18.27
2019-03-22T11:50:15.697Z,18.12
2019-03-22T11:52:47.124Z,18.04
2019-03-22T11:55:19.081Z,18.32
2019-03-22T11:57:50.428Z,18.35
2019-03-22T12:00:25.034Z,18.59
2019-03-22T12:02:56.544Z,18.29
2019-03-22T12:05:40.055Z,18.22
2019-03-22T12:08:06.976Z,18.53
2019-03-22T12:10:40.040Z,18.94
2019-03-22T12:13:11.381Z,19.06
2019-03-22T12:15:42.639Z,19.18
2019-03-22T12:18:14.705Z,19.44
2019-03-22T12:20:45.916Z,19.44
2019-03-22T12:23:17.229Z,19.19
2019-03-22T12:25:48.561Z,19.27
2019-03-22T12:28:19.796Z,19.38
2019-03-22T12:30:51.249Z,19.66
2019-03-22T12:33:23.183Z,19.94
2019-03-22T12:35:54.500Z,20.01
2019-03-22T12:38:25.777Z,20.08
2019-03-22T12:40:57.088Z,20.13
2019-03-22T12:43:30.473Z,20.31
2019-03-22T12:46:01.923Z,20.28
2019-03-22T12:48:33.181Z,20.27
2019-03-22T12:51:04.502Z,19.81
2019-03-22T12:53:35.771Z,19.87
2019-03-22T12:56:07.250Z,19.94
2019-03-22T12:58:38.478Z,20.04
2019-03-22T13:01:10.355Z,20.23
2019-03-22T13:03:42.649Z,20.22
2019-03-22T13:06:14.069Z,20.35
2019-03-22T13:08:45.452Z,20.41
2019-03-22T13:11:16.764Z,20.51
2019-03-22T13:13:48.003Z,20.62
2019-03-22T13:16:19.310Z,20.23
2019-03-22T13:18:50.608Z,20.31
2019-03-22T13:21:21.877Z,20.43
2019-03-22T13:23:53.350Z,20.42
2019-03-22T13:26:24.837Z,20.65
2019-03-22T13:28:56.174Z,20.77
2019-03-22T13:31:27.499Z,20.53
2019-03-22T13:33:58.789Z,20.45
2019-03-22T13:36:30.041Z,20.54
2019-03-22T13:39:01.416Z,20.68
2019-03-22T13:41:36.066Z,20.85
2019-03-22T13:44:07.426Z,21.05
2019-03-22T13:46:40.506Z,21.23
2019-03-22T13:49:11.901Z,21.17
2019-03-22T13:51:43.211Z,21.25
2019-03-22T13:54:14.547Z,21.27
2019-03-22T13:56:45.991Z,21.29
2019-03-22T13:59:17.231Z,21.28
2019-03-22T14:01:48.733Z,21.48
2019-03-22T14:04:19.978Z,21.68
2019-03-22T14:06:51.375Z,21.69
2019-03-22T14:09:24.866Z,21.60
2019-03-22T14:11:56.427Z,21.40
2019-03-22T14:14:27.682Z,21.53
2019-03-22T14:17:00.853Z,21.69
2019-03-22T14:19:32.427Z,22.04
2019-03-22T14:22:03.714Z,22.39
2019-03-22T14:24:35.088Z,22.64
2019-03-22T14:27:06.356Z,22.71
2019-03-22T14:29:37.879Z,22.68
2019-03-22T14:32:09.118Z,22.46
2019-03-22T14:34:42.080Z,22.44
2019-03-22T14:37:13.917Z,22.37
2019-03-22T14:39:45.309Z,22.42
2019-03-22T14:42:40.213Z,22.37
2019-03-22T14:45:12.318Z,22.33
2019-03-22T14:47:46.618Z,22.10
2019-03-22T14:50:19.106Z,21.72
2019-03-22T14:52:50.910Z,21.68
2019-03-22T14:55:22.243Z,21.61
2019-03-22T14:57:53.723Z,21.57
2019-03-22T15:00:25.017Z,21.73
2019-03-22T15:02:56.688Z,21.79
2019-03-22T15:05:28.046Z,21.65
2019-03-22T15:07:59.346Z,21.59
2019-03-22T15:10:30.729Z,21.32
2019-03-22T15:13:02.057Z,21.19
2019-03-22T15:15:56.653Z,21.17
2019-03-22T15:18:30.472Z,21.06
2019-03-22T15:21:19.437Z,21.08
2019-03-22T15:24:03.194Z,21.10
2019-03-22T15:26:30.191Z,20.98
2019-03-22T15:29:11.750Z,20.86
2019-03-22T15:31:53.917Z,20.85
2019-03-22T15:34:43.317Z,20.95
2019-03-22T15:37:19.139Z,20.99
2019-03-22T15:40:04.029Z,20.98
2019-03-22T15:42:35.811Z,20.92
2019-03-22T15:45:10.082Z,20.82
2019-03-22T15:47:41.439Z,20.91
2019-03-22T15:50:15.642Z,20.84
2019-03-22T15:52:47.085Z,20.75
2019-03-22T15:55:18.492Z,20.69
2019-03-22T15:57:50.112Z,20.61
2019-03-22T16:00:21.414Z,20.48
2019-03-22T16:02:52.798Z,20.41
2019-03-22T16:05:24.105Z,20.35
2019-03-22T16:07:55.415Z,20.28
2019-03-22T16:10:26.812Z,20.23
2019-03-22T16:12:58.186Z,20.12
2019-03-22T16:15:29.474Z,20.17
2019-03-22T16:18:00.789Z,20.19
2019-03-22T16:20:32.179Z,20.29
2019-03-22T16:23:03.583Z,20.31
2019-03-22T16:25:35.958Z,20.27
2019-03-22T16:28:07.398Z,20.30
2019-03-22T16:30:38.706Z,20.33
2019-03-22T16:33:09.953Z,20.12
2019-03-22T16:35:41.250Z,19.86
2019-03-22T16:38:12.513Z,19.76
2019-03-22T16:40:43.905Z,19.63
2019-03-22T16:43:15.312Z,19.60
2019-03-22T16:45:46.621Z,19.49
2019-03-22T16:48:17.973Z,19.31
2019-03-22T16:50:49.386Z,19.11
2019-03-22T16:53:20.745Z,18.94
2019-03-22T16:56:01.367Z,18.81
2019-03-22T16:58:32.949Z,18.72
2019-03-22T17:01:06.265Z,18.60
2019-03-22T17:03:37.644Z,18.47
2019-03-22T17:06:09.014Z,18.33
2019-03-22T17:08:40.308Z,18.20
2019-03-22T17:11:11.628Z,18.06
2019-03-22T17:13:43.004Z,17.87
2019-03-22T17:16:14.316Z,17.73
2019-03-22T17:18:45.734Z,17.65
2019-03-22T17:21:17.168Z,17.51
2019-03-22T17:23:48.591Z,17.43
2019-03-22T17:26:19.870Z,17.34
2019-03-22T17:28:51.228Z,17.24
2019-03-22T17:31:22.484Z,17.18
2019-03-22T17:33:53.932Z,17.13
2019-03-22T17:36:25.168Z,17.13
2019-03-22T17:38:56.617Z,16.99
2019-03-22T17:41:27.930Z,16.81
2019-03-22T17:43:59.376Z,16.65
2019-03-22T17:46:30.660Z,16.52
2019-03-22T17:49:07.022Z,16.43
2019-03-22T17:51:38.614Z,16.31
2019-03-22T17:54:09.947Z,16.24
2019-03-22T17:56:41.332Z,16.22
2019-03-22T17:59:12.660Z,16.20
2019-03-22T18:01:44.211Z,16.10
2019-03-22T18:04:23.855Z,16.04
2019-03-22T18:06:49.406Z,15.86
2019-03-22T18:09:20.720Z,15.82
2019-03-22T18:12:10.551Z,15.68
2019-03-22T18:14:42.689Z,15.53
2019-03-22T18:17:14.162Z,15.41
2019-03-22T18:19:49.121Z,15.23
2019-03-22T18:22:20.449Z,14.95
2019-03-22T18:24:51.800Z,14.52
2019-03-22T18:27:23.013Z,14.23
2019-03-22T18:29:54.364Z,14.04
2019-03-22T18:32:25.599Z,13.94
2019-03-22T18:34:56.957Z,13.82
2019-03-22T18:37:28.189Z,13.72
2019-03-22T18:39:59.525Z,13.65
2019-03-22T18:42:30.896Z,13.58
2019-03-22T18:45:02.248Z,13.59
2019-03-22T18:47:33.566Z,13.55
2019-03-22T18:50:10.288Z,13.59
2019-03-22T18:52:41.769Z,13.60
2019-03-22T18:55:13.517Z,13.41
2019-03-22T18:57:45.588Z,13.20
2019-03-22T19:00:18.317Z,13.07
2019-03-22T19:02:49.688Z,13.08
2019-03-22T19:05:21.801Z,13.03
2019-03-22T19:07:53.437Z,12.96
2019-03-22T19:10:25.787Z,12.95
2019-03-22T19:12:57.097Z,12.79
2019-03-22T19:15:46.411Z,12.77
2019-03-22T19:18:17.761Z,12.73
2019-03-22T19:20:49.222Z,12.49
2019-03-22T19:23:20.472Z,12.32
2019-03-22T19:25:51.875Z,12.09
2019-03-22T19:28:23.694Z,11.91
2019-03-22T19:30:56.324Z,11.76
2019-03-22T19:33:27.831Z,11.65
2019-03-22T19:35:59.443Z,11.59
2019-03-22T19:38:31.239Z,11.45
2019-03-22T19:41:03.141Z,11.33
2019-03-22T19:43:34.579Z,11.27
2019-03-22T19:46:06.709Z,11.19
2019-03-22T19:48:38.007Z,11.14
2019-03-22T19:51:09.697Z,11.08
2019-03-22T19:53:42.094Z,11.15
2019-03-22T19:56:13.395Z,11.28
2019-03-22T19:58:45.778Z,11.30
2019-03-22T20:01:17.309Z,11.31
2019-03-22T20:03:48.763Z,11.14
2019-03-22T20:06:20.149Z,10.95
2019-03-22T20:08:51.568Z,10.76
2019-03-22T20:11:24.029Z,10.63
2019-03-22T20:13:55.378Z,10.49
2019-03-22T20:16:26.869Z,10.37
2019-03-22T20:18:59.032Z,10.31
2019-03-22T20:21:30.386Z,10.28
2019-03-22T20:24:01.693Z,10.21
2019-03-22T20:26:33.228Z,10.10
2019-03-22T20:29:04.610Z,10.01
2019-03-22T20:31:37.109Z,9.91
2019-03-22T20:34:08.396Z,9.81
2019-03-22T20:36:39.736Z,9.70
2019-03-22T20:39:11.177Z,9.61
2019-03-22T20:41:42.505Z,9.51
2019-03-22T20:44:13.920Z,9.45
2019-03-22T20:46:45.202Z,9.40
2019-03-22T20:49:16.607Z,9.37
2019-03-22T20:51:48.063Z,9.30
2019-03-22T20:54:19.838Z,9.29
2019-03-22T20:56:51.171Z,9.25
2019-03-22T20:59:28.451Z,9.18
2019-03-22T21:01:59.895Z,9.14
2019-03-22T21:04:31.376Z,9.09
2019-03-22T21:07:02.815Z,9.06
2019-03-22T21:09:34.043Z,9.04
2019-03-22T21:12:05.543Z,8.99
2019-03-22T21:14:36.854Z,8.98
2019-03-22T21:17:08.879Z,8.96
2019-03-22T21:19:40.253Z,8.94
2019-03-22T21:22:11.608Z,8.92
2019-03-22T21:24:43.252Z,8.90
2019-03-22T21:27:22.440Z,8.89
2019-03-22T21:29:53.662Z,8.84
2019-03-22T21:32:25.139Z,8.79
2019-03-22T21:34:56.486Z,8.75
2019-03-22T21:37:28.332Z,8.72
2019-03-22T21:40:00.313Z,8.66
2019-03-22T21:42:32.464Z,8.66
2019-03-22T21:45:05.934Z,8.64
2019-03-22T21:47:37.474Z,8.60
2019-03-22T21:50:14.421Z,8.51
2019-03-22T21:52:45.645Z,8.45
2019-03-22T21:55:18.238Z,8.44
2019-03-22T21:57:49.519Z,8.40
2019-03-22T22:00:20.877Z,8.32
2019-03-22T22:02:52.970Z,8.27
2019-03-22T22:05:24.394Z,8.21
2019-03-22T22:07:55.645Z,8.13
2019-03-22T22:10:26.924Z,8.12
2019-03-22T22:12:58.461Z,8.10
2019-03-22T22:15:29.817Z,8.00
2019-03-22T22:18:01.090Z,7.95
2019-03-22T22:20:32.335Z,7.87
2019-03-22T22:23:04.510Z,7.80
2019-03-22T22:25:36.808Z,7.75
2019-03-22T22:28:08.109Z,7.74
2019-03-22T22:30:39.382Z,7.74
2019-03-22T22:33:10.597Z,7.75
2019-03-22T22:35:41.886Z,7.78
2019-03-22T22:38:13.097Z,7.72
2019-03-22T22:40:44.461Z,7.69
2019-03-22T22:43:15.694Z,7.69
2019-03-22T22:45:47.128Z,7.65
2019-03-22T22:48:18.394Z,7.69
2019-03-22T22:50:49.677Z,7.65
2019-03-22T22:53:20.906Z,7.57
2019-03-22T22:55:52.188Z,7.50
2019-03-22T22:58:23.438Z,7.42
2019-03-22T23:00:55.049Z,7.37
2019-03-22T23:03:27.947Z,7.42
2019-03-22T23:06:09.026Z,7.37
2019-03-22T23:08:32.310Z,7.45
2019-03-22T23:11:03.750Z,7.39
2019-03-22T23:13:35.111Z,7.31
2019-03-22T23:16:09.286Z,7.22
2019-03-22T23:18:40.728Z,7.19
2019-03-22T23:21:13.207Z,7.23
2019-03-22T23:23:46.150Z,7.33
2019-03-22T23:26:17.425Z,7.19
2019-03-22T23:28:51.494Z,7.05
2019-03-22T23:31:22.932Z,7.10
2019-03-22T23:33:54.295Z,6.96
2019-03-22T23:36:25.609Z,6.83
2019-03-22T23:38:57.037Z,6.73
2019-03-22T23:41:28.419Z,6.70
2019-03-22T23:43:59.884Z,6.64
2019-03-22T23:46:31.244Z,6.69
2019-03-22T23:49:03.505Z,6.66
2019-03-22T23:51:34.798Z,6.59
2019-03-22T23:54:06.079Z,6.53
2019-03-22T23:56:37.312Z,6.39
2019-03-22T23:59:08.594Z,6.32
